Time;durP1;ratioP1;P1;durP2;ratioP2;P2;SDS_P1;SDS_P2;PMS_P1;PMS_P2;Temp;Humidity;BMP_temperature;BMP_pressure;BME280_temperature;BME280_humidity;BME280_pressure;Samples;Min_cycle;Max_cycle;Signal;HPM_P1;HPM_P2
2022/04/10 00:00:02;;;;;;;;;;;;;;;;;;6199508;23;20261;-84
2022/04/10 00:02:29;;;;;;;;;;;;;;;;;;6201805;23;19974;-84
2022/04/10 00:05:11;;;;;;;;;;;;;;;;;;6170310;23;19954;-83
2022/04/10 00:07:39;;;;;;;;;;;;;;;;;;6169104;23;19920;-84
2022/04/10 00:10:09;;;;;;;;;;;;;;;;;;6146499;23;20417;-84
2022/04/10 00:12:36;;;;;;;;;;;;;;;;;;6170959;23;19962;-84
2022/04/10 00:15:17;;;;;;;;;;;;;;;;;;6112142;23;19956;-83
2022/04/10 00:17:52;;;;;;;;;;;;;;;;;;6110450;23;19925;-84
2022/04/10 00:20:18;;;;;;;;;;;;;;;;;;6087562;23;20274;-84
2022/04/10 00:22:45;;;;;;;;;;;;;;;;;;6085310;23;19979;-83
2022/04/10 00:25:13;;;;;;;;;;;;;;;;;;6088198;23;20336;-84
2022/04/10 00:27:40;;;;;;;;;;;;;;;;;;6088114;23;19992;-84
2022/04/10 00:30:07;;;;;;;;;;;;;;;;;;6055850;23;20273;-84
2022/04/10 00:32:36;;;;;;;;;;;;;;;;;;6058313;23;20083;-84
2022/04/10 00:35:05;;;;;;;;;;;;;;;;;;6056822;23;20674;-83
2022/04/10 00:37:31;;;;;;;;;;;;;;;;;;6066898;23;20402;-84
2022/04/10 00:39:58;;;;;;;;;;;;;;;;;;6065329;23;19956;-83
2022/04/10 00:42:24;;;;;;;;;;;;;;;;;;6090932;23;19928;-84
2022/04/10 00:44:51;;;;;;;;;;;;;;;;;;6064322;23;19925;-84
2022/04/10 00:47:18;;;;;;;;;;;;;;;;;;6094109;23;19920;-83
2022/04/10 00:49:45;;;;;;;;;;;;;;;;;;6117887;23;19991;-83
2022/04/10 00:52:11;;;;;;;;;;;;;;;;;;6120704;23;19956;-83
2022/04/10 00:54:38;;;;;;;;;;;;;;;;;;6145056;23;19932;-83
2022/04/10 00:57:04;;;;;;;;;;;;;;;;;;6142540;23;19959;-83
2022/04/10 00:59:31;;;;;;;;;;;;;;;;;;6120038;23;19920;-83
2022/04/10 01:02:06;;;;;;;;;;;;;;;;;;6164458;23;20229;-83
2022/04/10 01:04:32;;;;;;;;;;;;;;;;;;6148367;23;19925;-83
2022/04/10 01:07:02;;;;;;;;;;;;;;;;;;6170499;23;19928;-83
2022/04/10 01:09:30;;;;;;;;;;;;;;;;;;6172713;23;19978;-83
2022/04/10 01:11:56;;;;;;;;;;;;;;;;;;6145298;23;19999;-83
2022/04/10 01:14:23;;;;;;;;;;;;;;;;;;6174229;23;20010;-83
2022/04/10 01:16:51;;;;;;;;;;;;;;;;;;6144768;23;19916;-83
2022/04/10 01:19:17;;;;;;;;;;;;;;;;;;6172012;23;19973;-83
2022/04/10 01:21:44;;;;;;;;;;;;;;;;;;6167827;23;19939;-83
2022/04/10 01:24:11;;;;;;;;;;;;;;;;;;6171640;23;19920;-83
2022/04/10 01:26:41;;;;;;;;;;;;;;;;;;6171959;23;19948;-83
2022/04/10 01:29:08;;;;;;;;;;;;;;;;;;6169641;23;19917;-83
2022/04/10 01:31:35;;;;;;;;;;;;;;;;;;6146610;23;19920;-84
2022/04/10 01:34:05;;;;;;;;;;;;;;;;;;6136836;23;20435;-83
2022/04/10 01:36:31;;;;;;;;;;;;;;;;;;6114047;23;19947;-84
2022/04/10 01:39:12;;;;;;;;;;;;;;;;;;6081133;23;19925;-83
2022/04/10 01:41:42;;;;;;;;;;;;;;;;;;6080776;23;19932;-83
2022/04/10 01:44:11;;;;;;;;;;;;;;;;;;6057177;23;20297;-83
2022/04/10 01:46:38;;;;;;;;;;;;;;;;;;6110563;23;19924;-83
2022/04/10 01:49:05;;;;;;;;;;;;;;;;;;6114056;23;19921;-83
2022/04/10 01:51:47;;;;;;;;;;;;;;;;;;6138074;23;20023;-83
2022/04/10 01:54:14;;;;;;;;;;;;;;;;;;6117447;23;20322;-83
2022/04/10 01:56:43;;;;;;;;;;;;;;;;;;6143142;23;19952;-83
2022/04/10 01:59:09;;;;;;;;;;;;;;;;;;6118279;23;19931;-83
2022/04/10 02:01:36;;;;;;;;;;;;;;;;;;6118880;23;19924;-84
2022/04/10 02:04:03;;;;;;;;;;;;;;;;;;6090852;23;20060;-84
2022/04/10 02:06:31;;;;;;;;;;;;;;;;;;6118242;23;19928;-84
2022/04/10 02:08:58;;;;;;;;;;;;;;;;;;6116004;23;20261;-83
2022/04/10 02:11:24;;;;;;;;;;;;;;;;;;6177551;23;19990;-84
2022/04/10 02:13:51;;;;;;;;;;;;;;;;;;6202829;23;20009;-83
2022/04/10 02:16:18;;;;;;;;;;;;;;;;;;6177637;23;20291;-84
2022/04/10 02:18:46;;;;;;;;;;;;;;;;;;6201720;23;19920;-84
2022/04/10 02:21:13;;;;;;;;;;;;;;;;;;6178542;23;19924;-84
2022/04/10 02:23:39;;;;;;;;;;;;;;;;;;6201705;23;19916;-84
2022/04/10 02:26:06;;;;;;;;;;;;;;;;;;6198400;23;19926;-84
2022/04/10 02:28:47;;;;;;;;;;;;;;;;;;6143946;23;19928;-84
2022/04/10 02:31:14;;;;;;;;;;;;;;;;;;6167817;23;20411;-84
2022/04/10 02:33:44;;;;;;;;;;;;;;;;;;6140256;23;19928;-84
2022/04/10 02:36:12;;;;;;;;;;;;;;;;;;6119740;23;19991;-84
2022/04/10 02:38:41;;;;;;;;;;;;;;;;;;6143971;23;20319;-84
2022/04/10 02:41:22;;;;;;;;;;;;;;;;;;6058517;23;19932;-84
2022/04/10 02:43:49;;;;;;;;;;;;;;;;;;6052537;23;19922;-84
2022/04/10 02:46:16;;;;;;;;;;;;;;;;;;6077027;23;20058;-85
2022/04/10 02:48:42;;;;;;;;;;;;;;;;;;6106714;23;19964;-84
2022/04/10 02:51:09;;;;;;;;;;;;;;;;;;6083693;23;19917;-84
2022/04/10 02:53:36;;;;;;;;;;;;;;;;;;6084730;23;19917;-84
2022/04/10 02:56:03;;;;;;;;;;;;;;;;;;6084192;23;20081;-84
2022/04/10 02:58:35;;;;;;;;;;;;;;;;;;6110942;23;19928;-84
2022/04/10 03:01:01;;;;;;;;;;;;;;;;;;6169496;23;20449;-84
2022/04/10 03:03:27;;;;;;;;;;;;;;;;;;6168583;23;19924;-84
2022/04/10 03:05:54;;;;;;;;;;;;;;;;;;6141028;23;19920;-84
2022/04/10 03:08:21;;;;;;;;;;;;;;;;;;6169064;23;19926;-84
2022/04/10 03:10:57;;;;;;;;;;;;;;;;;;6142483;23;19973;-84
2022/04/10 03:13:25;;;;;;;;;;;;;;;;;;6167284;23;19920;-84
2022/04/10 03:15:51;;;;;;;;;;;;;;;;;;6192559;23;19916;-84
2022/04/10 03:18:16;;;;;;;;;;;;;;;;;;6145085;23;19920;-84
2022/04/10 03:20:44;;;;;;;;;;;;;;;;;;6142741;23;19928;-84
2022/04/10 03:23:11;;;;;;;;;;;;;;;;;;6144939;23;19924;-84
2022/04/10 03:25:38;;;;;;;;;;;;;;;;;;6195470;23;19920;-84
2022/04/10 03:28:05;;;;;;;;;;;;;;;;;;6142512;23;19991;-84
2022/04/10 03:30:32;;;;;;;;;;;;;;;;;;6170296;23;19920;-84
2022/04/10 03:33:00;;;;;;;;;;;;;;;;;;6192718;23;20253;-84
2022/04/10 03:35:27;;;;;;;;;;;;;;;;;;6144462;23;19927;-84
2022/04/10 03:37:54;;;;;;;;;;;;;;;;;;6192244;23;19927;-84
2022/04/10 03:40:20;;;;;;;;;;;;;;;;;;6145023;23;19956;-84
2022/04/10 03:42:47;;;;;;;;;;;;;;;;;;6143347;23;19983;-84
2022/04/10 03:45:13;;;;;;;;;;;;;;;;;;6198677;23;19973;-84
2022/04/10 03:47:54;;;;;;;;;;;;;;;;;;6198920;23;20393;-84
2022/04/10 03:50:21;;;;;;;;;;;;;;;;;;6175202;23;19924;-83
2022/04/10 03:52:47;;;;;;;;;;;;;;;;;;6197542;23;20006;-84
2022/04/10 03:55:14;;;;;;;;;;;;;;;;;;6178546;23;19924;-84
2022/04/10 03:57:43;;;;;;;;;;;;;;;;;;6178167;23;19920;-84
2022/04/10 04:00:11;;;;;;;;;;;;;;;;;;6178433;23;19942;-83
2022/04/10 04:02:38;;;;;;;;;;;;;;;;;;6178276;23;19931;-84
2022/04/10 04:05:05;;;;;;;;;;;;;;;;;;6176537;23;19920;-84
2022/04/10 04:07:32;;;;;;;;;;;;;;;;;;6205046;23;19923;-84
2022/04/10 04:09:58;;;;;;;;;;;;;;;;;;6176838;23;19919;-84
2022/04/10 04:12:24;;;;;;;;;;;;;;;;;;6177661;23;20097;-84
2022/04/10 04:14:51;;;;;;;;;;;;;;;;;;6200592;23;19920;-84
2022/04/10 04:17:17;;;;;;;;;;;;;;;;;;6178034;23;19942;-83
2022/04/10 04:19:43;;;;;;;;;;;;;;;;;;6177384;23;20321;-83
2022/04/10 04:22:11;;;;;;;;;;;;;;;;;;6203242;23;20217;-83
2022/04/10 04:24:38;;;;;;;;;;;;;;;;;;6174472;23;20623;-83
2022/04/10 04:27:06;;;;;;;;;;;;;;;;;;6171936;23;19996;-84
2022/04/10 04:29:32;;;;;;;;;;;;;;;;;;6200277;23;20565;-83
2022/04/10 04:32:02;;;;;;;;;;;;;;;;;;6197639;23;19939;-84
2022/04/10 04:34:44;;;;;;;;;;;;;;;;;;6165775;23;19959;-83
2022/04/10 04:37:12;;;;;;;;;;;;;;;;;;6142729;23;19958;-84
2022/04/10 04:39:40;;;;;;;;;;;;;;;;;;6167375;23;19943;-84
2022/04/10 04:42:07;;;;;;;;;;;;;;;;;;6140573;23;19924;-84
2022/04/10 04:44:33;;;;;;;;;;;;;;;;;;6116622;23;20154;-83
2022/04/10 04:47:06;;;;;;;;;;;;;;;;;;6137423;23;19982;-83
2022/04/10 04:49:32;;;;;;;;;;;;;;;;;;6140472;23;19978;-83
2022/04/10 04:51:58;;;;;;;;;;;;;;;;;;6113234;23;19948;-83
2022/04/10 04:54:24;;;;;;;;;;;;;;;;;;6140719;23;19920;-83
2022/04/10 04:56:50;;;;;;;;;;;;;;;;;;6139891;23;20364;-83
2022/04/10 04:59:17;;;;;;;;;;;;;;;;;;6143829;23;19971;-84
2022/04/10 05:02:03;;;;;;;;;;;;;;;;;;6147042;23;19982;-84
2022/04/10 05:04:30;;;;;;;;;;;;;;;;;;6145446;23;20028;-84
2022/04/10 05:06:57;;;;;;;;;;;;;;;;;;6118967;23;20405;-84
2022/04/10 05:09:24;;;;;;;;;;;;;;;;;;6120569;23;19927;-84
2022/04/10 05:11:51;;;;;;;;;;;;;;;;;;6161533;23;19915;-84
2022/04/10 05:14:19;;;;;;;;;;;;;;;;;;6177987;23;19920;-83
2022/04/10 05:16:45;;;;;;;;;;;;;;;;;;6174833;23;19962;-84
2022/04/10 05:19:16;;;;;;;;;;;;;;;;;;6177546;23;20447;-84
2022/04/10 05:21:42;;;;;;;;;;;;;;;;;;6199836;23;19963;-84
2022/04/10 05:24:11;;;;;;;;;;;;;;;;;;6204692;23;20010;-84
2022/04/10 05:26:37;;;;;;;;;;;;;;;;;;6200249;23;20002;-84
2022/04/10 05:29:04;;;;;;;;;;;;;;;;;;6199304;23;19919;-84
2022/04/10 05:31:30;;;;;;;;;;;;;;;;;;6175195;23;19920;-84
2022/04/10 05:33:56;;;;;;;;;;;;;;;;;;6174593;23;20019;-84
2022/04/10 05:36:23;;;;;;;;;;;;;;;;;;6201975;23;20308;-84
2022/04/10 05:38:50;;;;;;;;;;;;;;;;;;6175017;23;19931;-84
2022/04/10 05:41:18;;;;;;;;;;;;;;;;;;6178559;23;20324;-84
2022/04/10 05:43:44;;;;;;;;;;;;;;;;;;6174693;23;19966;-84
2022/04/10 05:46:10;;;;;;;;;;;;;;;;;;6175841;23;19923;-84
2022/04/10 05:48:36;;;;;;;;;;;;;;;;;;6176365;23;19991;-84
2022/04/10 05:51:09;;;;;;;;;;;;;;;;;;6200462;23;19946;-84
2022/04/10 05:53:53;;;;;;;;;;;;;;;;;;6139368;23;19921;-84
2022/04/10 05:56:20;;;;;;;;;;;;;;;;;;6120208;23;20004;-84
2022/04/10 05:58:46;;;;;;;;;;;;;;;;;;6142397;23;19927;-84
2022/04/10 06:01:13;;;;;;;;;;;;;;;;;;6142941;23;19940;-84
2022/04/10 06:03:42;;;;;;;;;;;;;;;;;;6094386;23;19932;-84
2022/04/10 06:06:08;;;;;;;;;;;;;;;;;;6142655;23;19921;-84
2022/04/10 06:08:38;;;;;;;;;;;;;;;;;;6144066;23;19920;-84
2022/04/10 06:11:19;;;;;;;;;;;;;;;;;;6114922;23;19917;-84
2022/04/10 06:13:46;;;;;;;;;;;;;;;;;;6112283;23;19917;-84
2022/04/10 06:16:14;;;;;;;;;;;;;;;;;;6114173;23;19928;-84
2022/04/10 06:18:39;;;;;;;;;;;;;;;;;;6113969;23;19958;-84
2022/04/10 06:21:05;;;;;;;;;;;;;;;;;;6063041;23;19972;-84
2022/04/10 06:23:34;;;;;;;;;;;;;;;;;;6112594;23;19925;-84
2022/04/10 06:26:02;;;;;;;;;;;;;;;;;;6165823;23;19967;-84
2022/04/10 06:28:28;;;;;;;;;;;;;;;;;;6169933;23;19920;-85
2022/04/10 06:30:55;;;;;;;;;;;;;;;;;;6166356;23;20014;-85
2022/04/10 06:33:23;;;;;;;;;;;;;;;;;;6168643;23;19967;-85
2022/04/10 06:35:50;;;;;;;;;;;;;;;;;;6167570;23;20051;-85
2022/04/10 06:38:22;;;;;;;;;;;;;;;;;;6144399;23;19963;-84
2022/04/10 06:40:51;;;;;;;;;;;;;;;;;;6142595;23;19952;-85
2022/04/10 06:43:20;;;;;;;;;;;;;;;;;;6199332;23;19930;-84
2022/04/10 06:45:50;;;;;;;;;;;;;;;;;;6212189;23;19923;-85
2022/04/10 06:48:15;;;;;;;;;;;;;;;;;;6205363;23;19923;-85
2022/04/10 06:50:43;;;;;;;;;;;;;;;;;;6205036;23;19986;-84
2022/04/10 06:53:10;;;;;;;;;;;;;;;;;;6232123;23;19951;-84
2022/04/10 06:55:37;;;;;;;;;;;;;;;;;;6181110;23;19920;-84
2022/04/10 06:58:09;;;;;;;;;;;;;;;;;;6180610;23;20317;-84
2022/04/10 07:00:38;;;;;;;;;;;;;;;;;;6205406;23;19955;-84
2022/04/10 07:03:13;;;;;;;;;;;;;;;;;;6232053;23;19973;-84
2022/04/10 07:05:41;;;;;;;;;;;;;;;;;;6205534;23;19924;-84
2022/04/10 07:08:17;;;;;;;;;;;;;;;;;;6230799;23;19927;-84
2022/04/10 07:10:43;;;;;;;;;;;;;;;;;;6204373;23;19939;-83
2022/04/10 07:13:10;;;;;;;;;;;;;;;;;;6177946;23;19969;-85
2022/04/10 07:15:37;;;;;;;;;;;;;;;;;;6203483;23;19927;-84
2022/04/10 07:18:05;;;;;;;;;;;;;;;;;;6201122;23;20459;-84
2022/04/10 07:20:33;;;;;;;;;;;;;;;;;;6202581;23;19942;-84
2022/04/10 07:25:48;;;;;;;;;;;;;;;;;;6227574;23;20307;-84
2022/04/10 07:28:15;;;;;;;;;;;;;;;;;;6204963;23;19920;-84
2022/04/10 07:30:41;;;;;;;;;;;;;;;;;;6180237;23;19931;-84
2022/04/10 07:33:09;;;;;;;;;;;;;;;;;;6231429;23;20340;-84
2022/04/10 07:35:40;;;;;;;;;;;;;;;;;;6229502;23;20366;-84
2022/04/10 07:38:26;;;;;;;;;;;;;;;;;;6137941;23;19960;-84
2022/04/10 07:40:53;;;;;;;;;;;;;;;;;;6112720;23;20702;-84
2022/04/10 07:43:21;;;;;;;;;;;;;;;;;;6115737;23;19999;-83
2022/04/10 07:48:35;;;;;;;;;;;;;;;;;;6140483;23;19921;-84
2022/04/10 07:51:03;;;;;;;;;;;;;;;;;;6160902;23;20273;-84
2022/04/10 07:53:30;;;;;;;;;;;;;;;;;;6164549;23;19948;-84
2022/04/10 07:55:58;;;;;;;;;;;;;;;;;;6164932;23;19963;-84
2022/04/10 07:58:25;;;;;;;;;;;;;;;;;;6141285;23;20453;-84
2022/04/10 08:00:52;;;;;;;;;;;;;;;;;;6140254;23;19920;-84
2022/04/10 08:03:19;;;;;;;;;;;;;;;;;;6141210;23;19931;-85
2022/04/10 08:05:45;;;;;;;;;;;;;;;;;;6164867;23;19921;-84
2022/04/10 08:08:12;;;;;;;;;;;;;;;;;;6141008;23;20715;-85
2022/04/10 08:10:40;;;;;;;;;;;;;;;;;;6167988;23;19924;-85
2022/04/10 08:13:14;;;;;;;;;;;;;;;;;;6144844;23;20293;-84
2022/04/10 08:15:41;;;;;;;;;;;;;;;;;;6143764;23;19916;-84
2022/04/10 08:18:22;;;;;;;;;;;;;;;;;;6113887;23;19979;-84
2022/04/10 08:20:51;;;;;;;;;;;;;;;;;;6088173;23;19917;-84
2022/04/10 08:23:18;;;;;;;;;;;;;;;;;;6147336;23;19924;-85
2022/04/10 08:25:44;;;;;;;;;;;;;;;;;;6143709;23;19916;-84
2022/04/10 08:28:17;;;;;;;;;;;;;;;;;;6173888;23;20044;-85
2022/04/10 08:30:43;;;;;;;;;;;;;;;;;;6148381;23;20244;-85
2022/04/10 08:33:10;;;;;;;;;;;;;;;;;;6149005;23;19948;-84
2022/04/10 08:35:37;;;;;;;;;;;;;;;;;;6148380;23;20436;-84
2022/04/10 08:38:05;;;;;;;;;;;;;;;;;;6149122;23;20008;-85
2022/04/10 08:40:32;;;;;;;;;;;;;;;;;;6151807;23;20310;-85
2022/04/10 08:43:00;;;;;;;;;;;;;;;;;;6147551;23;19928;-84
2022/04/10 08:45:45;;;;;;;;;;;;;;;;;;6143506;23;19991;-85
2022/04/10 08:48:15;;;;;;;;;;;;;;;;;;6121507;23;19950;-85
2022/04/10 08:50:43;;;;;;;;;;;;;;;;;;6147318;23;19931;-84
2022/04/10 08:53:29;;;;;;;;;;;;;;;;;;6111474;23;19921;-84
2022/04/10 08:55:56;;;;;;;;;;;;;;;;;;6084912;23;20463;-84
2022/04/10 08:58:24;;;;;;;;;;;;;;;;;;6086679;23;19929;-84
2022/04/10 09:00:51;;;;;;;;;;;;;;;;;;6063623;23;20017;-85
2022/04/10 09:03:18;;;;;;;;;;;;;;;;;;6067265;23;19964;-85
2022/04/10 09:05:46;;;;;;;;;;;;;;;;;;6063946;23;20361;-85
2022/04/10 09:08:13;;;;;;;;;;;;;;;;;;6064615;23;19924;-85
2022/04/10 09:10:41;;;;;;;;;;;;;;;;;;6065473;23;20580;-85
2022/04/10 09:13:07;;;;;;;;;;;;;;;;;;6087297;23;19921;-84
2022/04/10 09:15:34;;;;;;;;;;;;;;;;;;6088910;23;19917;-85
2022/04/10 09:18:00;;;;;;;;;;;;;;;;;;6085640;23;19921;-85
2022/04/10 09:20:27;;;;;;;;;;;;;;;;;;6089820;23;19984;-85
2022/04/10 09:22:53;;;;;;;;;;;;;;;;;;6065218;23;19961;-85
2022/04/10 09:25:20;;;;;;;;;;;;;;;;;;6067485;23;20278;-85
2022/04/10 09:27:47;;;;;;;;;;;;;;;;;;6064898;23;19924;-85
2022/04/10 09:30:13;;;;;;;;;;;;;;;;;;6091484;23;19921;-85
2022/04/10 09:32:41;;;;;;;;;;;;;;;;;;6090800;23;19983;-85
2022/04/10 09:35:10;;;;;;;;;;;;;;;;;;6115717;23;19917;-84
2022/04/10 09:37:37;;;;;;;;;;;;;;;;;;6090448;23;19944;-84
2022/04/10 09:40:04;;;;;;;;;;;;;;;;;;6088883;23;19921;-85
2022/04/10 09:42:32;;;;;;;;;;;;;;;;;;6091444;23;19925;-84
2022/04/10 09:44:58;;;;;;;;;;;;;;;;;;6230551;23;19938;-84
2022/04/10 09:47:24;;;;;;;;;;;;;;;;;;6152991;23;20468;-84
2022/04/10 09:49:53;;;;;;;;;;;;;;;;;;6149389;23;19920;-84
2022/04/10 09:52:33;;;;;;;;;;;;;;;;;;6178657;23;19952;-84
2022/04/10 09:54:59;;;;;;;;;;;;;;;;;;6174397;23;19952;-85
2022/04/10 09:57:27;;;;;;;;;;;;;;;;;;6176688;23;19939;-84
2022/04/10 09:59:53;;;;;;;;;;;;;;;;;;6149152;23;19928;-84
2022/04/10 10:02:20;;;;;;;;;;;;;;;;;;6175385;23;19924;-84
2022/04/10 10:04:46;;;;;;;;;;;;;;;;;;6172807;23;19928;-85
2022/04/10 10:07:15;;;;;;;;;;;;;;;;;;6175885;23;19995;-84
2022/04/10 10:09:46;;;;;;;;;;;;;;;;;;6174771;23;19920;-84
2022/04/10 10:12:13;;;;;;;;;;;;;;;;;;6177719;23;19995;-84
2022/04/10 10:14:39;;;;;;;;;;;;;;;;;;6178383;23;19926;-84
2022/04/10 10:17:06;;;;;;;;;;;;;;;;;;6174025;23;20019;-84
2022/04/10 10:19:38;;;;;;;;;;;;;;;;;;6178004;23;19957;-84
2022/04/10 10:22:06;;;;;;;;;;;;;;;;;;6175693;23;20003;-84
2022/04/10 10:24:36;;;;;;;;;;;;;;;;;;6178964;23;19995;-84
2022/04/10 10:27:03;;;;;;;;;;;;;;;;;;6174015;23;20351;-84
2022/04/10 10:29:29;;;;;;;;;;;;;;;;;;6177912;23;19921;-84
2022/04/10 10:31:57;;;;;;;;;;;;;;;;;;6174846;23;20647;-84
2022/04/10 10:34:26;;;;;;;;;;;;;;;;;;6177335;23;19923;-84
2022/04/10 10:36:54;;;;;;;;;;;;;;;;;;6172840;23;19924;-84
2022/04/10 10:39:22;;;;;;;;;;;;;;;;;;6177565;23;19920;-84
2022/04/10 10:41:49;;;;;;;;;;;;;;;;;;6173311;23;20356;-84
2022/04/10 10:44:31;;;;;;;;;;;;;;;;;;6178088;23;20347;-84
2022/04/10 10:47:12;;;;;;;;;;;;;;;;;;6233162;23;19930;-84
2022/04/10 10:49:39;;;;;;;;;;;;;;;;;;6185391;23;19986;-85
2022/04/10 10:52:09;;;;;;;;;;;;;;;;;;6207928;23;20268;-84
2022/04/10 10:54:45;;;;;;;;;;;;;;;;;;6210371;23;19955;-84
2022/04/10 10:57:12;;;;;;;;;;;;;;;;;;6185854;23;19922;-84
2022/04/10 10:59:45;;;;;;;;;;;;;;;;;;6185301;23;19920;-84
2022/04/10 11:02:13;;;;;;;;;;;;;;;;;;6210771;23;19927;-84
2022/04/10 11:04:39;;;;;;;;;;;;;;;;;;6210944;23;19915;-84
2022/04/10 11:07:06;;;;;;;;;;;;;;;;;;6181975;23;19923;-84
2022/04/10 11:09:48;;;;;;;;;;;;;;;;;;6142067;23;19921;-84
2022/04/10 11:12:15;;;;;;;;;;;;;;;;;;6145253;23;19927;-84
2022/04/10 11:14:45;;;;;;;;;;;;;;;;;;6144402;23;19924;-85
2022/04/10 11:17:11;;;;;;;;;;;;;;;;;;6119718;23;19956;-84
2022/04/10 11:19:38;;;;;;;;;;;;;;;;;;6120429;23;19925;-84
2022/04/10 11:22:07;;;;;;;;;;;;;;;;;;6093646;23;19924;-84
2022/04/10 11:24:34;;;;;;;;;;;;;;;;;;6140896;23;20373;-84
2022/04/10 11:27:04;;;;;;;;;;;;;;;;;;6117053;23;20379;-85
2022/04/10 11:29:30;;;;;;;;;;;;;;;;;;6144339;23;19920;-84
2022/04/10 11:31:57;;;;;;;;;;;;;;;;;;6116703;23;19928;-84
2022/04/10 11:34:25;;;;;;;;;;;;;;;;;;6144605;23;20395;-84
2022/04/10 11:36:52;;;;;;;;;;;;;;;;;;6141041;23;19992;-84
2022/04/10 11:39:20;;;;;;;;;;;;;;;;;;6118304;23;19921;-84
2022/04/10 11:41:46;;;;;;;;;;;;;;;;;;6226065;23;19924;-84
2022/04/10 11:44:12;;;;;;;;;;;;;;;;;;6186176;23;19927;-85
2022/04/10 11:46:39;;;;;;;;;;;;;;;;;;6236444;23;19930;-84
2022/04/10 11:49:07;;;;;;;;;;;;;;;;;;6235462;23;19945;-84
2022/04/10 11:51:35;;;;;;;;;;;;;;;;;;6209379;23;20332;-85
2022/04/10 11:54:01;;;;;;;;;;;;;;;;;;6182744;23;19926;-85
2022/04/10 11:56:28;;;;;;;;;;;;;;;;;;6185191;23;19990;-84
2022/04/10 11:58:54;;;;;;;;;;;;;;;;;;6207278;23;19920;-84
2022/04/10 12:01:21;;;;;;;;;;;;;;;;;;6237637;23;19927;-84
2022/04/10 12:03:51;;;;;;;;;;;;;;;;;;6234727;23;19923;-85
2022/04/10 12:06:19;;;;;;;;;;;;;;;;;;6209739;23;19920;-84
2022/04/10 12:08:46;;;;;;;;;;;;;;;;;;6234694;23;19922;-85
2022/04/10 12:11:13;;;;;;;;;;;;;;;;;;6237557;23;19942;-84
2022/04/10 12:13:40;;;;;;;;;;;;;;;;;;6237046;23;19930;-84
2022/04/10 12:16:06;;;;;;;;;;;;;;;;;;6234908;22;19915;-84
2022/04/10 12:18:34;;;;;;;;;;;;;;;;;;6237442;23;19919;-84
2022/04/10 12:21:01;;;;;;;;;;;;;;;;;;6208225;23;19919;-84
2022/04/10 12:23:48;;;;;;;;;;;;;;;;;;6141978;23;19925;-84
2022/04/10 12:26:15;;;;;;;;;;;;;;;;;;6144103;23;20441;-84
2022/04/10 12:28:43;;;;;;;;;;;;;;;;;;6144795;23;20073;-84
2022/04/10 12:31:09;;;;;;;;;;;;;;;;;;6143697;23;19924;-84
2022/04/10 12:33:36;;;;;;;;;;;;;;;;;;6120058;23;19921;-84
2022/04/10 12:36:03;;;;;;;;;;;;;;;;;;6141409;23;19925;-84
2022/04/10 12:38:31;;;;;;;;;;;;;;;;;;6116634;23;19920;-84
2022/04/10 12:40:58;;;;;;;;;;;;;;;;;;6142124;23;19932;-84
2022/04/10 12:43:24;;;;;;;;;;;;;;;;;;6144342;23;19960;-84
2022/04/10 12:45:51;;;;;;;;;;;;;;;;;;6141257;23;19924;-84
2022/04/10 12:48:18;;;;;;;;;;;;;;;;;;6144136;23;20007;-84
2022/04/10 12:50:45;;;;;;;;;;;;;;;;;;6140684;23;20009;-84
2022/04/10 12:53:12;;;;;;;;;;;;;;;;;;6119666;23;19921;-84
2022/04/10 12:55:39;;;;;;;;;;;;;;;;;;6172005;23;19919;-84
2022/04/10 12:58:21;;;;;;;;;;;;;;;;;;6205927;23;19927;-84
2022/04/10 13:00:49;;;;;;;;;;;;;;;;;;6205045;23;19986;-85
2022/04/10 13:03:15;;;;;;;;;;;;;;;;;;6208035;23;19998;-84
2022/04/10 13:05:44;;;;;;;;;;;;;;;;;;6206103;23;20002;-84
2022/04/10 13:08:11;;;;;;;;;;;;;;;;;;6182030;23;19916;-84
2022/04/10 13:10:38;;;;;;;;;;;;;;;;;;6204643;23;19922;-84
2022/04/10 13:13:04;;;;;;;;;;;;;;;;;;6172565;23;19920;-84
2022/04/10 13:15:32;;;;;;;;;;;;;;;;;;6201327;23;19920;-84
2022/04/10 13:17:59;;;;;;;;;;;;;;;;;;6176803;23;20288;-84
2022/04/10 13:20:45;;;;;;;;;;;;;;;;;;6205341;23;20259;-84
2022/04/10 13:23:12;;;;;;;;;;;;;;;;;;6207484;23;19978;-84
2022/04/10 13:25:39;;;;;;;;;;;;;;;;;;6179187;23;19920;-84
2022/04/10 13:28:06;;;;;;;;;;;;;;;;;;6201672;23;19916;-84
2022/04/10 13:30:33;;;;;;;;;;;;;;;;;;6203146;23;19919;-84
2022/04/10 13:33:01;;;;;;;;;;;;;;;;;;6173535;23;19927;-84
2022/04/10 13:35:28;;;;;;;;;;;;;;;;;;6203352;23;19931;-84
2022/04/10 13:37:54;;;;;;;;;;;;;;;;;;6202635;23;19931;-84
2022/04/10 13:40:22;;;;;;;;;;;;;;;;;;6207218;23;19938;-84
2022/04/10 13:42:52;;;;;;;;;;;;;;;;;;6203865;23;19928;-84
2022/04/10 13:45:20;;;;;;;;;;;;;;;;;;6206778;23;19920;-84
2022/04/10 13:47:46;;;;;;;;;;;;;;;;;;6177971;23;19987;-84
2022/04/10 13:50:13;;;;;;;;;;;;;;;;;;6181870;23;20345;-85
2022/04/10 13:52:39;;;;;;;;;;;;;;;;;;6207847;23;19923;-84
2022/04/10 13:55:21;;;;;;;;;;;;;;;;;;6174620;23;20268;-84
2022/04/10 13:57:48;;;;;;;;;;;;;;;;;;6147453;23;19924;-84
2022/04/10 14:00:15;;;;;;;;;;;;;;;;;;6150398;23;19946;-84
2022/04/10 14:02:44;;;;;;;;;;;;;;;;;;6174980;23;19924;-84
2022/04/10 14:05:11;;;;;;;;;;;;;;;;;;6149542;23;19948;-84
2022/04/10 14:07:38;;;;;;;;;;;;;;;;;;6149914;23;19983;-84
2022/04/10 14:10:05;;;;;;;;;;;;;;;;;;6147586;23;19920;-85
2022/04/10 14:12:32;;;;;;;;;;;;;;;;;;6175228;23;20002;-85
2022/04/10 14:14:59;;;;;;;;;;;;;;;;;;6172901;23;19917;-85
2022/04/10 14:17:27;;;;;;;;;;;;;;;;;;6174520;23;19920;-86
2022/04/10 14:19:54;;;;;;;;;;;;;;;;;;6147406;23;19927;-85
2022/04/10 14:22:20;;;;;;;;;;;;;;;;;;6174026;23;19935;-84
2022/04/10 14:24:47;;;;;;;;;;;;;;;;;;6146109;23;19921;-85
2022/04/10 14:27:13;;;;;;;;;;;;;;;;;;6171637;23;19920;-85
2022/04/10 14:29:41;;;;;;;;;;;;;;;;;;6206364;23;19920;-85
2022/04/10 14:32:08;;;;;;;;;;;;;;;;;;6201515;23;19920;-85
2022/04/10 14:34:35;;;;;;;;;;;;;;;;;;6178114;23;19952;-85
2022/04/10 14:37:03;;;;;;;;;;;;;;;;;;6199223;23;19923;-84
2022/04/10 14:39:30;;;;;;;;;;;;;;;;;;6179047;23;20289;-84
2022/04/10 14:41:57;;;;;;;;;;;;;;;;;;6173813;23;20351;-85
2022/04/10 14:44:23;;;;;;;;;;;;;;;;;;6201453;23;20422;-84
2022/04/10 14:46:49;;;;;;;;;;;;;;;;;;6173260;23;19959;-84
2022/04/10 14:49:15;;;;;;;;;;;;;;;;;;6203633;23;19916;-84
2022/04/10 14:51:41;;;;;;;;;;;;;;;;;;6201203;23;19924;-84
2022/04/10 14:54:12;;;;;;;;;;;;;;;;;;6201725;23;19916;-84
2022/04/10 14:56:39;;;;;;;;;;;;;;;;;;6205565;23;19941;-84
2022/04/10 14:59:06;;;;;;;;;;;;;;;;;;6178747;23;20367;-84
2022/04/10 15:01:48;;;;;;;;;;;;;;;;;;6204972;23;19999;-85
2022/04/10 15:04:17;;;;;;;;;;;;;;;;;;6207528;23;19935;-84
2022/04/10 15:06:44;;;;;;;;;;;;;;;;;;6206138;23;19954;-85
2022/04/10 15:09:11;;;;;;;;;;;;;;;;;;6208308;23;19923;-84
2022/04/10 15:11:38;;;;;;;;;;;;;;;;;;6204952;23;19916;-84
2022/04/10 15:14:04;;;;;;;;;;;;;;;;;;6201094;23;19920;-85
2022/04/10 15:16:31;;;;;;;;;;;;;;;;;;6200292;23;19927;-84
2022/04/10 15:18:58;;;;;;;;;;;;;;;;;;6172366;23;19987;-84
2022/04/10 15:21:26;;;;;;;;;;;;;;;;;;6173592;23;20019;-84
2022/04/10 15:23:54;;;;;;;;;;;;;;;;;;6197645;23;19924;-84
2022/04/10 15:26:21;;;;;;;;;;;;;;;;;;6173083;23;19928;-84
2022/04/10 15:28:48;;;;;;;;;;;;;;;;;;6197691;23;19920;-84
2022/04/10 15:31:15;;;;;;;;;;;;;;;;;;6174469;23;19919;-83
2022/04/10 15:33:43;;;;;;;;;;;;;;;;;;6199348;23;19920;-84
2022/04/10 15:36:10;;;;;;;;;;;;;;;;;;6201244;23;19916;-84
2022/04/10 15:38:36;;;;;;;;;;;;;;;;;;6174517;23;19920;-84
2022/04/10 15:41:02;;;;;;;;;;;;;;;;;;6198143;23;20338;-84
2022/04/10 15:43:29;;;;;;;;;;;;;;;;;;6200250;23;19969;-84
2022/04/10 15:45:56;;;;;;;;;;;;;;;;;;6199082;23;19927;-84
2022/04/10 15:48:37;;;;;;;;;;;;;;;;;;6234013;23;20695;-84
2022/04/10 15:51:08;;;;;;;;;;;;;;;;;;6229104;23;19920;-84
2022/04/10 15:53:35;;;;;;;;;;;;;;;;;;6231415;23;19927;-84
2022/04/10 15:56:02;;;;;;;;;;;;;;;;;;6180322;23;20357;-84
2022/04/10 15:58:29;;;;;;;;;;;;;;;;;;6183219;23;19923;-84
2022/04/10 16:00:55;;;;;;;;;;;;;;;;;;6179977;23;19919;-84
2022/04/10 16:03:23;;;;;;;;;;;;;;;;;;6206348;23;19927;-84
2022/04/10 16:05:50;;;;;;;;;;;;;;;;;;6203551;23;20351;-84
2022/04/10 16:08:18;;;;;;;;;;;;;;;;;;6206296;23;20384;-84
2022/04/10 16:10:45;;;;;;;;;;;;;;;;;;6205043;23;19919;-84
2022/04/10 16:13:13;;;;;;;;;;;;;;;;;;6181191;23;19986;-84
2022/04/10 16:15:42;;;;;;;;;;;;;;;;;;6207456;23;19915;-84
2022/04/10 16:18:26;;;;;;;;;;;;;;;;;;6140871;23;19999;-84
2022/04/10 16:20:54;;;;;;;;;;;;;;;;;;6138093;23;19921;-84
2022/04/10 16:23:21;;;;;;;;;;;;;;;;;;6113706;23;19925;-84
2022/04/10 16:25:48;;;;;;;;;;;;;;;;;;6133648;23;19928;-84
2022/04/10 16:31:03;;;;;;;;;;;;;;;;;;6134823;23;19956;-84
2022/04/10 16:33:30;;;;;;;;;;;;;;;;;;6136783;23;20044;-84
2022/04/10 16:36:16;;;;;;;;;;;;;;;;;;6137413;23;19920;-84
2022/04/10 16:39:01;;;;;;;;;;;;;;;;;;6106847;23;19921;-84
2022/04/10 16:41:29;;;;;;;;;;;;;;;;;;6085920;23;20398;-84
2022/04/10 16:43:56;;;;;;;;;;;;;;;;;;6104564;23;19948;-84
2022/04/10 16:46:23;;;;;;;;;;;;;;;;;;6107315;23;19921;-84
2022/04/10 16:48:50;;;;;;;;;;;;;;;;;;6103957;23;20857;-84
2022/04/10 16:51:17;;;;;;;;;;;;;;;;;;6084344;23;20310;-84
2022/04/10 16:53:44;;;;;;;;;;;;;;;;;;6084766;23;20261;-84
2022/04/10 16:56:10;;;;;;;;;;;;;;;;;;6084620;23;20297;-84
2022/04/10 16:58:36;;;;;;;;;;;;;;;;;;6084148;23;20007;-84
2022/04/10 17:01:04;;;;;;;;;;;;;;;;;;6083577;23;20461;-84